Pirapemas, Brazil
Current Conditions -  °F | °C
As of 9:00 AM on Monday 24 Nov 2014 (Local Time) from SBSL Reporting Station
Scattered Clouds Scattered Clouds  
Wind Chill: 84°   Ceiling: Unl
Heat Index: 86°   Visibility: 6mi
Dew Point: 66°   Wind: 15mph
Humidity: 55%   Direction: 60°ENE
Pressure: 29.91"   Gusts: NA
Location:  3.73°S, 44.22°W
Report Text: SBSL 241200Z 06013KT 9999 SCT020 29/19 Q1013
Loading
Personal Weather Stations






























Interactive Weather Map New forecast layout! Learn more

10-Day Weather Forecast

Advertisements
Track Severe Weather on mobile